Meaux, Louisiana
Current Conditions -  °F | °C
As of 10:50 PM on Saturday 25 Oct 2014 (Local Time) from KIYA Reporting Station
Clear Clear  
Wind Chill: 58°   Ceiling: Unl
Heat Index: 58°   Visibility: 10mi
Dew Point: 56°   Wind: 0mph
Humidity: 93%   Direction: NA
Pressure: 30.11"   Gusts: NA
Location:  29.8955°N, 92.208°W
Report Text: KIYA 260350Z AUTO 00000KT 10SM CLR 15/14 A3011 RMK AO2 T01470136
Loading
Personal Weather Stations






























Interactive Weather Map
Tropical Storm Tracking
New forecast layout! Learn more

10-Day Weather Forecast

Advertisements
Track Severe Weather on mobile